sensor_id;sensor_type;location;lat;lon;timestamp;P1;durP1;ratioP1;P2;durP2;ratioP2
60370;SDS011;48550;40.588;49.684;2024-01-16T00:00:33;11.02;;;5.38;;
60370;SDS011;48550;40.588;49.684;2024-01-16T00:02:59;9.27;;;5.28;;
60370;SDS011;48550;40.588;49.684;2024-01-16T00:05:25;9.50;;;5.78;;
60370;SDS011;48550;40.588;49.684;2024-01-16T00:07:51;10.02;;;5.55;;
60370;SDS011;48550;40.588;49.684;2024-01-16T00:10:16;10.63;;;5.65;;
60370;SDS011;48550;40.588;49.684;2024-01-16T00:12:42;11.68;;;5.45;;
60370;SDS011;48550;40.588;49.684;2024-01-16T00:15:08;9.85;;;5.57;;
60370;SDS011;48550;40.588;49.684;2024-01-16T00:17:34;11.95;;;5.95;;
60370;SDS011;48550;40.588;49.684;2024-01-16T00:20:00;13.82;;;6.60;;
60370;SDS011;48550;40.588;49.684;2024-01-16T00:22:27;9.32;;;5.75;;
60370;SDS011;48550;40.588;49.684;2024-01-16T00:24:53;9.35;;;5.38;;
60370;SDS011;48550;40.588;49.684;2024-01-16T00:27:18;11.77;;;6.30;;
60370;SDS011;48550;40.588;49.684;2024-01-16T00:29:44;12.73;;;6.07;;
60370;SDS011;48550;40.588;49.684;2024-01-16T00:32:10;10.82;;;5.50;;
60370;SDS011;48550;40.588;49.684;2024-01-16T00:34:35;11.75;;;6.47;;
60370;SDS011;48550;40.588;49.684;2024-01-16T00:37:01;11.38;;;5.82;;
60370;SDS011;48550;40.588;49.684;2024-01-16T00:39:27;9.85;;;6.03;;
60370;SDS011;48550;40.588;49.684;2024-01-16T00:41:52;13.57;;;7.13;;
60370;SDS011;48550;40.588;49.684;2024-01-16T00:44:18;15.27;;;8.00;;
60370;SDS011;48550;40.588;49.684;2024-01-16T00:46:44;17.38;;;8.63;;
60370;SDS011;48550;40.588;49.684;2024-01-16T00:49:09;14.65;;;9.15;;
60370;SDS011;48550;40.588;49.684;2024-01-16T00:51:35;21.77;;;11.18;;
60370;SDS011;48550;40.588;49.684;2024-01-16T00:54:01;20.23;;;11.23;;
60370;SDS011;48550;40.588;49.684;2024-01-16T00:56:27;20.17;;;11.50;;
60370;SDS011;48550;40.588;49.684;2024-01-16T00:58:53;19.77;;;11.82;;
60370;SDS011;48550;40.588;49.684;2024-01-16T01:01:21;23.67;;;13.65;;
60370;SDS011;48550;40.588;49.684;2024-01-16T01:03:47;20.55;;;11.35;;
60370;SDS011;48550;40.588;49.684;2024-01-16T01:06:12;17.83;;;11.05;;
60370;SDS011;48550;40.588;49.684;2024-01-16T01:08:38;20.90;;;12.65;;
60370;SDS011;48550;40.588;49.684;2024-01-16T01:11:04;16.88;;;10.27;;
60370;SDS011;48550;40.588;49.684;2024-01-16T01:13:29;13.80;;;8.20;;
60370;SDS011;48550;40.588;49.684;2024-01-16T01:15:55;15.85;;;7.78;;
60370;SDS011;48550;40.588;49.684;2024-01-16T01:18:21;14.73;;;7.38;;
60370;SDS011;48550;40.588;49.684;2024-01-16T01:20:47;11.10;;;6.47;;
60370;SDS011;48550;40.588;49.684;2024-01-16T01:23:13;15.70;;;6.80;;
60370;SDS011;48550;40.588;49.684;2024-01-16T01:25:39;15.75;;;7.03;;
60370;SDS011;48550;40.588;49.684;2024-01-16T01:28:04;12.32;;;6.13;;
60370;SDS011;48550;40.588;49.684;2024-01-16T01:30:31;13.38;;;6.57;;
60370;SDS011;48550;40.588;49.684;2024-01-16T01:32:57;11.57;;;5.82;;
60370;SDS011;48550;40.588;49.684;2024-01-16T01:35:23;11.85;;;7.20;;
60370;SDS011;48550;40.588;49.684;2024-01-16T01:37:48;11.82;;;5.40;;
60370;SDS011;48550;40.588;49.684;2024-01-16T01:40:14;11.40;;;6.13;;
60370;SDS011;48550;40.588;49.684;2024-01-16T01:42:43;10.50;;;6.25;;
60370;SDS011;48550;40.588;49.684;2024-01-16T01:45:10;15.73;;;7.60;;
60370;SDS011;48550;40.588;49.684;2024-01-16T01:47:36;11.93;;;6.40;;
60370;SDS011;48550;40.588;49.684;2024-01-16T01:50:07;12.77;;;6.15;;
60370;SDS011;48550;40.588;49.684;2024-01-16T01:52:35;11.13;;;6.30;;
60370;SDS011;48550;40.588;49.684;2024-01-16T01:55:04;8.98;;;5.40;;
60370;SDS011;48550;40.588;49.684;2024-01-16T01:57:33;9.85;;;5.57;;
60370;SDS011;48550;40.588;49.684;2024-01-16T01:59:59;12.55;;;5.97;;
60370;SDS011;48550;40.588;49.684;2024-01-16T02:02:26;14.10;;;6.05;;
60370;SDS011;48550;40.588;49.684;2024-01-16T02:04:52;12.80;;;6.57;;
60370;SDS011;48550;40.588;49.684;2024-01-16T02:07:18;14.48;;;6.90;;
60370;SDS011;48550;40.588;49.684;2024-01-16T02:09:43;13.48;;;6.70;;
60370;SDS011;48550;40.588;49.684;2024-01-16T02:12:09;13.98;;;7.03;;
60370;SDS011;48550;40.588;49.684;2024-01-16T02:14:35;15.73;;;6.55;;
60370;SDS011;48550;40.588;49.684;2024-01-16T02:17:01;16.05;;;6.95;;
60370;SDS011;48550;40.588;49.684;2024-01-16T02:19:26;11.25;;;6.18;;
60370;SDS011;48550;40.588;49.684;2024-01-16T02:21:53;15.43;;;7.28;;
60370;SDS011;48550;40.588;49.684;2024-01-16T02:24:23;14.98;;;6.45;;
60370;SDS011;48550;40.588;49.684;2024-01-16T02:26:49;10.55;;;5.53;;
60370;SDS011;48550;40.588;49.684;2024-01-16T02:29:15;11.02;;;5.25;;
60370;SDS011;48550;40.588;49.684;2024-01-16T02:31:41;13.75;;;5.70;;
60370;SDS011;48550;40.588;49.684;2024-01-16T02:34:07;11.68;;;5.28;;
60370;SDS011;48550;40.588;49.684;2024-01-16T02:36:34;11.38;;;5.32;;
60370;SDS011;48550;40.588;49.684;2024-01-16T02:38:59;8.90;;;4.50;;
60370;SDS011;48550;40.588;49.684;2024-01-16T02:41:25;11.82;;;5.93;;
60370;SDS011;48550;40.588;49.684;2024-01-16T02:43:51;8.82;;;5.32;;
60370;SDS011;48550;40.588;49.684;2024-01-16T02:46:17;10.60;;;5.70;;
60370;SDS011;48550;40.588;49.684;2024-01-16T02:48:43;12.95;;;6.18;;
60370;SDS011;48550;40.588;49.684;2024-01-16T02:51:09;12.50;;;5.15;;
60370;SDS011;48550;40.588;49.684;2024-01-16T02:53:35;11.65;;;4.97;;
60370;SDS011;48550;40.588;49.684;2024-01-16T02:56:01;10.88;;;5.53;;
60370;SDS011;48550;40.588;49.684;2024-01-16T02:58:27;14.07;;;6.22;;
60370;SDS011;48550;40.588;49.684;2024-01-16T03:00:53;11.70;;;6.55;;
60370;SDS011;48550;40.588;49.684;2024-01-16T03:03:19;14.15;;;7.15;;
60370;SDS011;48550;40.588;49.684;2024-01-16T03:05:45;14.43;;;6.22;;
60370;SDS011;48550;40.588;49.684;2024-01-16T03:08:11;18.75;;;7.25;;
60370;SDS011;48550;40.588;49.684;2024-01-16T03:10:37;12.45;;;6.78;;
60370;SDS011;48550;40.588;49.684;2024-01-16T03:13:03;14.30;;;7.50;;
60370;SDS011;48550;40.588;49.684;2024-01-16T03:15:29;16.55;;;7.13;;
60370;SDS011;48550;40.588;49.684;2024-01-16T03:17:58;13.52;;;6.57;;
60370;SDS011;48550;40.588;49.684;2024-01-16T03:20:25;14.68;;;7.07;;
60370;SDS011;48550;40.588;49.684;2024-01-16T03:22:51;15.80;;;6.80;;
60370;SDS011;48550;40.588;49.684;2024-01-16T03:25:17;11.10;;;6.43;;
60370;SDS011;48550;40.588;49.684;2024-01-16T03:27:42;11.85;;;6.00;;
60370;SDS011;48550;40.588;49.684;2024-01-16T03:30:09;11.10;;;5.97;;
60370;SDS011;48550;40.588;49.684;2024-01-16T03:32:35;12.00;;;6.72;;
60370;SDS011;48550;40.588;49.684;2024-01-16T03:35:02;11.35;;;6.53;;
60370;SDS011;48550;40.588;49.684;2024-01-16T03:37:29;12.80;;;6.10;;
60370;SDS011;48550;40.588;49.684;2024-01-16T03:39:55;12.38;;;6.50;;
60370;SDS011;48550;40.588;49.684;2024-01-16T03:42:22;13.48;;;6.65;;
60370;SDS011;48550;40.588;49.684;2024-01-16T03:44:48;12.10;;;6.15;;
60370;SDS011;48550;40.588;49.684;2024-01-16T03:47:14;14.85;;;6.25;;
60370;SDS011;48550;40.588;49.684;2024-01-16T03:49:40;15.93;;;5.88;;
60370;SDS011;48550;40.588;49.684;2024-01-16T03:52:06;13.93;;;6.60;;
60370;SDS011;48550;40.588;49.684;2024-01-16T03:54:38;11.20;;;5.63;;
60370;SDS011;48550;40.588;49.684;2024-01-16T03:57:12;13.23;;;6.75;;
60370;SDS011;48550;40.588;49.684;2024-01-16T03:59:47;10.68;;;6.28;;
60370;SDS011;48550;40.588;49.684;2024-01-16T04:02:12;11.80;;;6.93;;
60370;SDS011;48550;40.588;49.684;2024-01-16T04:04:38;12.98;;;7.22;;
60370;SDS011;48550;40.588;49.684;2024-01-16T04:07:04;9.65;;;5.28;;
60370;SDS011;48550;40.588;49.684;2024-01-16T04:09:30;12.15;;;6.55;;
60370;SDS011;48550;40.588;49.684;2024-01-16T04:11:56;13.52;;;5.90;;
60370;SDS011;48550;40.588;49.684;2024-01-16T04:14:21;11.25;;;5.88;;
60370;SDS011;48550;40.588;49.684;2024-01-16T04:16:47;11.77;;;5.72;;
60370;SDS011;48550;40.588;49.684;2024-01-16T04:19:13;13.18;;;5.90;;
60370;SDS011;48550;40.588;49.684;2024-01-16T04:21:38;13.80;;;6.05;;
60370;SDS011;48550;40.588;49.684;2024-01-16T04:24:04;12.40;;;7.10;;
60370;SDS011;48550;40.588;49.684;2024-01-16T04:26:30;14.68;;;7.43;;
60370;SDS011;48550;40.588;49.684;2024-01-16T04:28:56;13.13;;;6.82;;
60370;SDS011;48550;40.588;49.684;2024-01-16T04:31:23;12.60;;;6.90;;
60370;SDS011;48550;40.588;49.684;2024-01-16T04:33:49;13.68;;;7.40;;
60370;SDS011;48550;40.588;49.684;2024-01-16T04:36:14;14.50;;;7.80;;
60370;SDS011;48550;40.588;49.684;2024-01-16T04:38:40;14.13;;;8.73;;
60370;SDS011;48550;40.588;49.684;2024-01-16T04:41:07;9.80;;;5.60;;
60370;SDS011;48550;40.588;49.684;2024-01-16T04:43:32;13.50;;;6.80;;
60370;SDS011;48550;40.588;49.684;2024-01-16T04:45:58;11.93;;;6.28;;
60370;SDS011;48550;40.588;49.684;2024-01-16T04:48:24;11.85;;;6.45;;
60370;SDS011;48550;40.588;49.684;2024-01-16T04:50:49;13.98;;;6.45;;
60370;SDS011;48550;40.588;49.684;2024-01-16T04:53:15;12.02;;;6.78;;
60370;SDS011;48550;40.588;49.684;2024-01-16T04:55:41;11.35;;;6.43;;
60370;SDS011;48550;40.588;49.684;2024-01-16T04:58:06;10.70;;;6.15;;
60370;SDS011;48550;40.588;49.684;2024-01-16T05:00:32;13.57;;;7.05;;
60370;SDS011;48550;40.588;49.684;2024-01-16T05:02:58;11.98;;;6.97;;
60370;SDS011;48550;40.588;49.684;2024-01-16T05:05:25;11.00;;;6.22;;
60370;SDS011;48550;40.588;49.684;2024-01-16T05:07:51;10.15;;;6.00;;
60370;SDS011;48550;40.588;49.684;2024-01-16T05:10:17;11.95;;;7.05;;
60370;SDS011;48550;40.588;49.684;2024-01-16T05:12:42;11.82;;;7.00;;
60370;SDS011;48550;40.588;49.684;2024-01-16T05:15:09;13.07;;;6.65;;
60370;SDS011;48550;40.588;49.684;2024-01-16T05:17:36;13.10;;;7.15;;
60370;SDS011;48550;40.588;49.684;2024-01-16T05:20:03;13.93;;;7.30;;
60370;SDS011;48550;40.588;49.684;2024-01-16T05:22:29;12.00;;;6.57;;
60370;SDS011;48550;40.588;49.684;2024-01-16T05:24:55;13.68;;;8.15;;
60370;SDS011;48550;40.588;49.684;2024-01-16T05:27:21;13.80;;;6.50;;
60370;SDS011;48550;40.588;49.684;2024-01-16T05:29:46;13.02;;;7.72;;
60370;SDS011;48550;40.588;49.684;2024-01-16T05:32:13;14.80;;;7.68;;
60370;SDS011;48550;40.588;49.684;2024-01-16T05:34:39;10.23;;;6.45;;
60370;SDS011;48550;40.588;49.684;2024-01-16T05:37:05;13.15;;;8.02;;
60370;SDS011;48550;40.588;49.684;2024-01-16T05:39:30;13.60;;;8.93;;
60370;SDS011;48550;40.588;49.684;2024-01-16T05:41:56;18.30;;;9.85;;
60370;SDS011;48550;40.588;49.684;2024-01-16T05:44:22;11.85;;;7.40;;
60370;SDS011;48550;40.588;49.684;2024-01-16T05:46:48;12.77;;;6.28;;
60370;SDS011;48550;40.588;49.684;2024-01-16T05:49:13;12.23;;;7.35;;
60370;SDS011;48550;40.588;49.684;2024-01-16T05:51:39;9.25;;;6.00;;
60370;SDS011;48550;40.588;49.684;2024-01-16T05:54:05;12.07;;;6.72;;
60370;SDS011;48550;40.588;49.684;2024-01-16T05:56:31;11.13;;;6.88;;
60370;SDS011;48550;40.588;49.684;2024-01-16T05:58:57;9.30;;;6.38;;
60370;SDS011;48550;40.588;49.684;2024-01-16T06:01:22;13.13;;;7.53;;
60370;SDS011;48550;40.588;49.684;2024-01-16T06:03:48;10.75;;;6.82;;
60370;SDS011;48550;40.588;49.684;2024-01-16T06:06:15;12.35;;;7.32;;
60370;SDS011;48550;40.588;49.684;2024-01-16T06:08:41;12.73;;;6.90;;
60370;SDS011;48550;40.588;49.684;2024-01-16T06:11:07;10.75;;;6.95;;
60370;SDS011;48550;40.588;49.684;2024-01-16T06:13:32;10.70;;;6.90;;
60370;SDS011;48550;40.588;49.684;2024-01-16T06:15:58;9.98;;;6.43;;
60370;SDS011;48550;40.588;49.684;2024-01-16T06:18:24;10.93;;;6.40;;
60370;SDS011;48550;40.588;49.684;2024-01-16T06:20:50;12.70;;;8.20;;
60370;SDS011;48550;40.588;49.684;2024-01-16T06:23:15;13.35;;;7.47;;
60370;SDS011;48550;40.588;49.684;2024-01-16T06:25:41;12.27;;;7.78;;
60370;SDS011;48550;40.588;49.684;2024-01-16T06:28:07;11.93;;;7.40;;
60370;SDS011;48550;40.588;49.684;2024-01-16T06:30:32;12.98;;;7.38;;
60370;SDS011;48550;40.588;49.684;2024-01-16T06:32:58;12.23;;;7.25;;
60370;SDS011;48550;40.588;49.684;2024-01-16T06:35:24;14.10;;;7.35;;
60370;SDS011;48550;40.588;49.684;2024-01-16T06:37:50;10.25;;;6.57;;
60370;SDS011;48550;40.588;49.684;2024-01-16T06:40:16;15.25;;;8.93;;
60370;SDS011;48550;40.588;49.684;2024-01-16T06:42:41;13.27;;;8.48;;
60370;SDS011;48550;40.588;49.684;2024-01-16T06:45:07;12.68;;;7.80;;
60370;SDS011;48550;40.588;49.684;2024-01-16T06:47:33;11.93;;;7.78;;
60370;SDS011;48550;40.588;49.684;2024-01-16T06:49:59;12.82;;;7.85;;
60370;SDS011;48550;40.588;49.684;2024-01-16T06:52:25;14.70;;;7.80;;
60370;SDS011;48550;40.588;49.684;2024-01-16T06:54:50;14.10;;;8.20;;
60370;SDS011;48550;40.588;49.684;2024-01-16T06:57:16;9.45;;;6.55;;
60370;SDS011;48550;40.588;49.684;2024-01-16T06:59:42;11.15;;;6.05;;
60370;SDS011;48550;40.588;49.684;2024-01-16T07:02:08;9.63;;;5.85;;
60370;SDS011;48550;40.588;49.684;2024-01-16T07:04:34;10.75;;;6.40;;
60370;SDS011;48550;40.588;49.684;2024-01-16T07:06:59;11.82;;;6.72;;
60370;SDS011;48550;40.588;49.684;2024-01-16T07:09:25;11.02;;;5.82;;
60370;SDS011;48550;40.588;49.684;2024-01-16T07:11:52;11.13;;;6.13;;
60370;SDS011;48550;40.588;49.684;2024-01-16T07:14:19;11.68;;;5.85;;
60370;SDS011;48550;40.588;49.684;2024-01-16T07:16:45;10.15;;;5.72;;
60370;SDS011;48550;40.588;49.684;2024-01-16T07:19:11;9.80;;;5.95;;
60370;SDS011;48550;40.588;49.684;2024-01-16T07:21:37;8.82;;;5.10;;
60370;SDS011;48550;40.588;49.684;2024-01-16T07:24:03;9.45;;;5.18;;
60370;SDS011;48550;40.588;49.684;2024-01-16T07:26:29;9.25;;;5.45;;
60370;SDS011;48550;40.588;49.684;2024-01-16T07:28:55;10.68;;;5.80;;
60370;SDS011;48550;40.588;49.684;2024-01-16T07:31:21;9.13;;;4.80;;
60370;SDS011;48550;40.588;49.684;2024-01-16T07:33:47;9.18;;;4.93;;
60370;SDS011;48550;40.588;49.684;2024-01-16T07:36:13;8.73;;;5.40;;
60370;SDS011;48550;40.588;49.684;2024-01-16T07:38:39;10.15;;;4.80;;
60370;SDS011;48550;40.588;49.684;2024-01-16T07:41:04;10.20;;;5.82;;
60370;SDS011;48550;40.588;49.684;2024-01-16T07:43:30;12.00;;;5.32;;
60370;SDS011;48550;40.588;49.684;2024-01-16T07:45:56;12.73;;;5.07;;
60370;SDS011;48550;40.588;49.684;2024-01-16T07:48:22;11.20;;;5.95;;
60370;SDS011;48550;40.588;49.684;2024-01-16T07:50:49;9.38;;;5.28;;
60370;SDS011;48550;40.588;49.684;2024-01-16T07:53:15;13.57;;;6.63;;
60370;SDS011;48550;40.588;49.684;2024-01-16T07:55:44;10.70;;;6.13;;
60370;SDS011;48550;40.588;49.684;2024-01-16T07:58:10;9.85;;;4.93;;
60370;SDS011;48550;40.588;49.684;2024-01-16T08:00:36;10.52;;;5.10;;
60370;SDS011;48550;40.588;49.684;2024-01-16T08:03:02;13.23;;;5.07;;
60370;SDS011;48550;40.588;49.684;2024-01-16T08:05:29;9.50;;;5.47;;
60370;SDS011;48550;40.588;49.684;2024-01-16T08:07:58;9.38;;;5.13;;
60370;SDS011;48550;40.588;49.684;2024-01-16T08:10:24;10.15;;;4.90;;
60370;SDS011;48550;40.588;49.684;2024-01-16T08:12:49;9.75;;;4.72;;
60370;SDS011;48550;40.588;49.684;2024-01-16T08:15:15;9.25;;;4.90;;
60370;SDS011;48550;40.588;49.684;2024-01-16T08:17:41;7.43;;;4.32;;
60370;SDS011;48550;40.588;49.684;2024-01-16T08:20:07;12.18;;;4.63;;
60370;SDS011;48550;40.588;49.684;2024-01-16T08:22:37;9.38;;;4.47;;
60370;SDS011;48550;40.588;49.684;2024-01-16T08:25:03;8.63;;;4.20;;
60370;SDS011;48550;40.588;49.684;2024-01-16T08:27:32;8.48;;;4.65;;
60370;SDS011;48550;40.588;49.684;2024-01-16T08:29:58;8.88;;;5.05;;
60370;SDS011;48550;40.588;49.684;2024-01-16T08:32:24;9.57;;;4.72;;
60370;SDS011;48550;40.588;49.684;2024-01-16T08:34:50;7.32;;;4.40;;
60370;SDS011;48550;40.588;49.684;2024-01-16T08:37:16;10.13;;;4.43;;
60370;SDS011;48550;40.588;49.684;2024-01-16T08:39:42;8.18;;;4.72;;
60370;SDS011;48550;40.588;49.684;2024-01-16T08:42:08;6.18;;;3.92;;
60370;SDS011;48550;40.588;49.684;2024-01-16T08:44:37;10.38;;;4.25;;
60370;SDS011;48550;40.588;49.684;2024-01-16T08:47:04;7.30;;;3.70;;
60370;SDS011;48550;40.588;49.684;2024-01-16T08:49:31;8.73;;;4.00;;
60370;SDS011;48550;40.588;49.684;2024-01-16T08:51:58;7.07;;;4.28;;
60370;SDS011;48550;40.588;49.684;2024-01-16T08:54:24;6.85;;;3.47;;
60370;SDS011;48550;40.588;49.684;2024-01-16T08:56:51;10.38;;;3.72;;
60370;SDS011;48550;40.588;49.684;2024-01-16T08:59:17;10.40;;;3.38;;
60370;SDS011;48550;40.588;49.684;2024-01-16T09:01:43;5.95;;;3.00;;
60370;SDS011;48550;40.588;49.684;2024-01-16T09:04:09;5.93;;;3.10;;
60370;SDS011;48550;40.588;49.684;2024-01-16T09:06:34;6.60;;;3.90;;
60370;SDS011;48550;40.588;49.684;2024-01-16T09:09:00;8.30;;;3.88;;
60370;SDS011;48550;40.588;49.684;2024-01-16T09:11:26;7.53;;;3.72;;
60370;SDS011;48550;40.588;49.684;2024-01-16T09:13:52;7.22;;;3.97;;
60370;SDS011;48550;40.588;49.684;2024-01-16T09:16:17;9.55;;;4.25;;
60370;SDS011;48550;40.588;49.684;2024-01-16T09:18:43;9.95;;;4.28;;
60370;SDS011;48550;40.588;49.684;2024-01-16T09:21:09;10.50;;;4.63;;
60370;SDS011;48550;40.588;49.684;2024-01-16T09:23:35;13.23;;;7.45;;
60370;SDS011;48550;40.588;49.684;2024-01-16T09:26:00;7.90;;;4.47;;
60370;SDS011;48550;40.588;49.684;2024-01-16T09:28:26;11.27;;;4.97;;
60370;SDS011;48550;40.588;49.684;2024-01-16T09:30:54;7.45;;;3.88;;
60370;SDS011;48550;40.588;49.684;2024-01-16T09:33:21;7.38;;;3.75;;
60370;SDS011;48550;40.588;49.684;2024-01-16T09:35:51;6.05;;;3.60;;
60370;SDS011;48550;40.588;49.684;2024-01-16T09:38:17;7.80;;;3.42;;
60370;SDS011;48550;40.588;49.684;2024-01-16T09:40:42;9.70;;;4.70;;
60370;SDS011;48550;40.588;49.684;2024-01-16T09:43:09;10.00;;;4.35;;
60370;SDS011;48550;40.588;49.684;2024-01-16T09:45:37;7.03;;;4.10;;
60370;SDS011;48550;40.588;49.684;2024-01-16T09:48:04;11.70;;;3.83;;
60370;SDS011;48550;40.588;49.684;2024-01-16T09:50:31;7.10;;;3.58;;
60370;SDS011;48550;40.588;49.684;2024-01-16T09:52:57;6.40;;;3.35;;
60370;SDS011;48550;40.588;49.684;2024-01-16T09:55:23;10.43;;;3.33;;
60370;SDS011;48550;40.588;49.684;2024-01-16T09:57:51;6.80;;;3.20;;
60370;SDS011;48550;40.588;49.684;2024-01-16T10:00:18;9.63;;;3.65;;
60370;SDS011;48550;40.588;49.684;2024-01-16T10:02:44;6.05;;;3.40;;
60370;SDS011;48550;40.588;49.684;2024-01-16T10:05:10;7.40;;;3.90;;
60370;SDS011;48550;40.588;49.684;2024-01-16T10:07:37;9.60;;;3.83;;
60370;SDS011;48550;40.588;49.684;2024-01-16T10:10:04;9.57;;;3.38;;
60370;SDS011;48550;40.588;49.684;2024-01-16T10:12:30;6.28;;;3.40;;
60370;SDS011;48550;40.588;49.684;2024-01-16T10:14:57;9.05;;;3.63;;
60370;SDS011;48550;40.588;49.684;2024-01-16T10:17:23;5.75;;;3.40;;
60370;SDS011;48550;40.588;49.684;2024-01-16T10:20:01;6.82;;;3.70;;
60370;SDS011;48550;40.588;49.684;2024-01-16T10:22:29;9.25;;;3.60;;
60370;SDS011;48550;40.588;49.684;2024-01-16T10:25:05;6.00;;;3.40;;
60370;SDS011;48550;40.588;49.684;2024-01-16T10:27:33;6.57;;;3.50;;
60370;SDS011;48550;40.588;49.684;2024-01-16T10:30:02;5.90;;;3.47;;
60370;SDS011;48550;40.588;49.684;2024-01-16T10:32:38;7.20;;;3.58;;
60370;SDS011;48550;40.588;49.684;2024-01-16T10:35:13;7.70;;;3.35;;
60370;SDS011;48550;40.588;49.684;2024-01-16T10:40:15;6.60;;;3.40;;
60370;SDS011;48550;40.588;49.684;2024-01-16T10:42:45;6.40;;;3.80;;
60370;SDS011;48550;40.588;49.684;2024-01-16T10:45:37;7.82;;;3.97;;
60370;SDS011;48550;40.588;49.684;2024-01-16T10:48:06;6.18;;;3.47;;
60370;SDS011;48550;40.588;49.684;2024-01-16T10:50:33;8.20;;;3.30;;
60370;SDS011;48550;40.588;49.684;2024-01-16T10:53:00;5.97;;;3.17;;
60370;SDS011;48550;40.588;49.684;2024-01-16T10:55:29;7.13;;;3.85;;
60370;SDS011;48550;40.588;49.684;2024-01-16T10:57:58;8.63;;;4.30;;
60370;SDS011;48550;40.588;49.684;2024-01-16T11:00:25;7.60;;;3.92;;
60370;SDS011;48550;40.588;49.684;2024-01-16T11:03:07;6.22;;;3.35;;
60370;SDS011;48550;40.588;49.684;2024-01-16T11:05:43;7.13;;;3.67;;
60370;SDS011;48550;40.588;49.684;2024-01-16T11:08:10;8.32;;;3.83;;
60370;SDS011;48550;40.588;49.684;2024-01-16T11:10:38;7.70;;;4.03;;
60370;SDS011;48550;40.588;49.684;2024-01-16T11:13:05;10.35;;;4.45;;
60370;SDS011;48550;40.588;49.684;2024-01-16T11:15:31;11.52;;;4.20;;
60370;SDS011;48550;40.588;49.684;2024-01-16T11:17:59;7.65;;;4.53;;
60370;SDS011;48550;40.588;49.684;2024-01-16T11:20:25;8.10;;;4.07;;
60370;SDS011;48550;40.588;49.684;2024-01-16T11:22:52;7.18;;;3.70;;
60370;SDS011;48550;40.588;49.684;2024-01-16T11:25:30;7.25;;;3.70;;
60370;SDS011;48550;40.588;49.684;2024-01-16T11:28:09;9.10;;;4.38;;
60370;SDS011;48550;40.588;49.684;2024-01-16T11:30:37;8.95;;;3.85;;
60370;SDS011;48550;40.588;49.684;2024-01-16T11:33:03;6.93;;;3.42;;
60370;SDS011;48550;40.588;49.684;2024-01-16T11:35:35;5.53;;;3.10;;
60370;SDS011;48550;40.588;49.684;2024-01-16T11:40:35;7.53;;;3.38;;
60370;SDS011;48550;40.588;49.684;2024-01-16T11:45:57;6.95;;;3.53;;
60370;SDS011;48550;40.588;49.684;2024-01-16T11:48:23;7.88;;;3.80;;
60370;SDS011;48550;40.588;49.684;2024-01-16T11:50:50;6.18;;;3.47;;
60370;SDS011;48550;40.588;49.684;2024-01-16T12:01:28;12.00;;;4.22;;
60370;SDS011;48550;40.588;49.684;2024-01-16T12:04:07;8.07;;;3.50;;
60370;SDS011;48550;40.588;49.684;2024-01-16T12:06:35;9.52;;;4.20;;
60370;SDS011;48550;40.588;49.684;2024-01-16T12:09:11;8.80;;;3.78;;
60370;SDS011;48550;40.588;49.684;2024-01-16T12:11:38;7.43;;;4.68;;
60370;SDS011;48550;40.588;49.684;2024-01-16T12:14:05;8.00;;;4.00;;
60370;SDS011;48550;40.588;49.684;2024-01-16T12:16:30;8.10;;;3.88;;
60370;SDS011;48550;40.588;49.684;2024-01-16T12:19:06;6.28;;;3.90;;
60370;SDS011;48550;40.588;49.684;2024-01-16T12:21:39;11.07;;;4.25;;
60370;SDS011;48550;40.588;49.684;2024-01-16T12:24:05;6.53;;;3.85;;
60370;SDS011;48550;40.588;49.684;2024-01-16T12:26:31;7.25;;;3.83;;
60370;SDS011;48550;40.588;49.684;2024-01-16T12:28:57;7.05;;;3.70;;
60370;SDS011;48550;40.588;49.684;2024-01-16T12:31:23;9.38;;;4.82;;
60370;SDS011;48550;40.588;49.684;2024-01-16T12:33:50;9.48;;;4.50;;
60370;SDS011;48550;40.588;49.684;2024-01-16T12:36:16;7.38;;;4.45;;
60370;SDS011;48550;40.588;49.684;2024-01-16T12:38:42;7.90;;;4.25;;
60370;SDS011;48550;40.588;49.684;2024-01-16T12:41:09;9.80;;;3.92;;
60370;SDS011;48550;40.588;49.684;2024-01-16T12:43:36;9.60;;;4.10;;
60370;SDS011;48550;40.588;49.684;2024-01-16T12:46:02;8.02;;;3.88;;
60370;SDS011;48550;40.588;49.684;2024-01-16T12:48:28;12.23;;;4.03;;
60370;SDS011;48550;40.588;49.684;2024-01-16T12:51:00;8.40;;;4.20;;
60370;SDS011;48550;40.588;49.684;2024-01-16T12:53:32;10.68;;;4.20;;
60370;SDS011;48550;40.588;49.684;2024-01-16T12:55:59;6.70;;;4.00;;
60370;SDS011;48550;40.588;49.684;2024-01-16T12:58:31;8.73;;;4.00;;
60370;SDS011;48550;40.588;49.684;2024-01-16T13:01:20;7.40;;;3.92;;
60370;SDS011;48550;40.588;49.684;2024-01-16T13:03:51;8.02;;;4.15;;
60370;SDS011;48550;40.588;49.684;2024-01-16T13:06:18;6.85;;;3.80;;
60370;SDS011;48550;40.588;49.684;2024-01-16T13:08:48;7.90;;;4.10;;
60370;SDS011;48550;40.588;49.684;2024-01-16T13:11:15;8.15;;;4.32;;
60370;SDS011;48550;40.588;49.684;2024-01-16T13:13:45;6.38;;;3.63;;
60370;SDS011;48550;40.588;49.684;2024-01-16T13:16:12;5.82;;;3.10;;
60370;SDS011;48550;40.588;49.684;2024-01-16T13:18:39;7.75;;;3.75;;
60370;SDS011;48550;40.588;49.684;2024-01-16T13:21:04;9.13;;;3.78;;
60370;SDS011;48550;40.588;49.684;2024-01-16T13:23:31;7.07;;;3.67;;
60370;SDS011;48550;40.588;49.684;2024-01-16T13:25:56;7.75;;;3.92;;
60370;SDS011;48550;40.588;49.684;2024-01-16T13:28:25;7.00;;;3.45;;
60370;SDS011;48550;40.588;49.684;2024-01-16T13:30:52;7.53;;;3.50;;
60370;SDS011;48550;40.588;49.684;2024-01-16T13:33:18;7.70;;;4.50;;
60370;SDS011;48550;40.588;49.684;2024-01-16T13:35:46;6.28;;;2.83;;
60370;SDS011;48550;40.588;49.684;2024-01-16T13:38:12;8.32;;;3.75;;
60370;SDS011;48550;40.588;49.684;2024-01-16T13:40:41;7.05;;;3.60;;
60370;SDS011;48550;40.588;49.684;2024-01-16T13:43:06;6.85;;;3.05;;
60370;SDS011;48550;40.588;49.684;2024-01-16T13:45:33;9.50;;;3.40;;
60370;SDS011;48550;40.588;49.684;2024-01-16T13:48:00;5.88;;;3.30;;
60370;SDS011;48550;40.588;49.684;2024-01-16T13:50:27;9.40;;;3.85;;
60370;SDS011;48550;40.588;49.684;2024-01-16T13:52:53;8.02;;;3.13;;
60370;SDS011;48550;40.588;49.684;2024-01-16T13:55:20;12.68;;;5.07;;
60370;SDS011;48550;40.588;49.684;2024-01-16T13:57:46;10.80;;;4.72;;
60370;SDS011;48550;40.588;49.684;2024-01-16T14:00:12;7.07;;;3.58;;
60370;SDS011;48550;40.588;49.684;2024-01-16T14:02:44;9.23;;;3.40;;
60370;SDS011;48550;40.588;49.684;2024-01-16T14:05:11;6.35;;;3.50;;
60370;SDS011;48550;40.588;49.684;2024-01-16T14:07:43;10.00;;;4.18;;
60370;SDS011;48550;40.588;49.684;2024-01-16T14:10:12;8.73;;;4.28;;
60370;SDS011;48550;40.588;49.684;2024-01-16T14:12:39;7.70;;;3.50;;
60370;SDS011;48550;40.588;49.684;2024-01-16T14:15:08;8.18;;;3.85;;
60370;SDS011;48550;40.588;49.684;2024-01-16T14:17:52;8.48;;;3.92;;
60370;SDS011;48550;40.588;49.684;2024-01-16T14:20:20;8.43;;;3.25;;
60370;SDS011;48550;40.588;49.684;2024-01-16T14:22:49;8.55;;;3.72;;
60370;SDS011;48550;40.588;49.684;2024-01-16T14:25:17;8.27;;;3.50;;
60370;SDS011;48550;40.588;49.684;2024-01-16T14:27:56;8.27;;;4.10;;
60370;SDS011;48550;40.588;49.684;2024-01-16T14:30:29;10.00;;;4.15;;
60370;SDS011;48550;40.588;49.684;2024-01-16T14:32:56;9.35;;;4.68;;
60370;SDS011;48550;40.588;49.684;2024-01-16T14:35:22;8.60;;;3.90;;
60370;SDS011;48550;40.588;49.684;2024-01-16T14:37:49;9.90;;;4.30;;
60370;SDS011;48550;40.588;49.684;2024-01-16T14:40:15;7.68;;;3.42;;